createdAt,value
2019-04-05T00:00:01.599Z,9.10
2019-04-05T00:05:04.688Z,7.55
2019-04-05T00:10:07.591Z,8.63
2019-04-05T00:15:15.564Z,8.55
2019-04-05T00:20:14.569Z,8.23
2019-04-05T00:25:16.614Z,8.08
2019-04-05T00:30:18.816Z,9.88
2019-04-05T00:35:20.827Z,9.38
2019-04-05T00:40:22.965Z,8.25
2019-04-05T00:45:28.419Z,7.58
2019-04-05T00:50:29.030Z,8.40
2019-04-05T00:55:31.117Z,7.83
2019-04-05T01:00:33.409Z,6.15
2019-04-05T01:05:35.679Z,5.58
2019-04-05T01:10:38.066Z,7.22
2019-04-05T01:15:41.354Z,8.58
2019-04-05T01:20:47.159Z,9.50
2019-04-05T01:25:52.826Z,10.18
2019-04-05T01:30:55.006Z,9.15
2019-04-05T01:35:57.087Z,7.25
2019-04-05T01:40:59.528Z,4.95
2019-04-05T01:46:01.600Z,4.05
2019-04-05T01:51:04.448Z,4.70
2019-04-05T01:56:06.510Z,4.40
2019-04-05T02:01:08.625Z,4.50
2019-04-05T02:06:10.798Z,4.47
2019-04-05T02:11:12.980Z,4.60
2019-04-05T02:16:15.095Z,5.17
2019-04-05T02:21:17.270Z,4.80
2019-04-05T02:26:19.346Z,5.15
2019-04-05T02:31:21.600Z,4.87
2019-04-05T02:36:23.806Z,5.40
2019-04-05T02:41:26.609Z,5.17
2019-04-05T02:46:31.799Z,5.20
2019-04-05T02:51:36.740Z,5.28
2019-04-05T02:56:39.406Z,5.53
2019-04-05T03:01:42.214Z,5.45
2019-04-05T03:06:45.039Z,5.67
2019-04-05T03:11:48.077Z,5.53
2019-04-05T03:16:53.807Z,5.78
2019-04-05T03:22:04.454Z,5.87
2019-04-05T03:27:15.660Z,6.00
2019-04-05T03:32:18.424Z,5.90
2019-04-05T03:37:21.176Z,6.55
2019-04-05T03:42:23.714Z,6.75
2019-04-05T03:47:25.930Z,6.62
2019-04-05T03:52:28.040Z,5.92
2019-04-05T03:57:30.031Z,6.67
2019-04-05T04:02:32.231Z,6.83
2019-04-05T04:07:34.623Z,8.38
2019-04-05T04:12:36.764Z,10.72
2019-04-05T04:17:39.032Z,11.60
2019-04-05T04:22:41.196Z,12.50
2019-04-05T04:27:43.757Z,12.55
2019-04-05T04:32:46.261Z,12.25
2019-04-05T04:37:48.420Z,12.45
2019-04-05T04:42:50.794Z,12.23
2019-04-05T04:47:53.517Z,12.30
2019-04-05T04:52:56.702Z,11.08
2019-04-05T04:57:58.702Z,10.08
2019-04-05T05:03:01.030Z,9.53
2019-04-05T05:08:03.938Z,10.00
2019-04-05T05:13:06.317Z,9.83
2019-04-05T05:18:08.663Z,9.95
2019-04-05T05:23:11.093Z,9.88
2019-04-05T05:28:13.384Z,9.45
2019-04-05T05:33:15.457Z,9.73
2019-04-05T05:38:18.900Z,8.73
2019-04-05T05:43:23.682Z,8.55
2019-04-05T05:48:25.312Z,10.10
2019-04-05T05:53:27.544Z,9.23
2019-04-05T05:58:29.651Z,7.72
2019-04-05T06:03:31.711Z,6.62
2019-04-05T06:08:33.772Z,7.92
2019-04-05T06:13:35.863Z,6.30
2019-04-05T06:18:37.914Z,6.65
2019-04-05T06:23:40.486Z,5.97
2019-04-05T06:28:42.688Z,5.58
2019-04-05T06:33:44.786Z,6.50
2019-04-05T06:38:46.862Z,5.80
2019-04-05T06:43:48.913Z,6.10
2019-04-05T06:48:51.051Z,6.30
2019-04-05T06:53:53.093Z,5.80
2019-04-05T06:58:55.138Z,5.28
2019-04-05T07:03:57.228Z,5.00
2019-04-05T07:08:59.289Z,5.65
2019-04-05T07:14:01.364Z,4.62
2019-04-05T07:19:03.532Z,4.70
2019-04-05T07:24:05.950Z,4.85
2019-04-05T07:29:08.003Z,5.25
2019-04-05T07:34:10.034Z,5.60
2019-04-05T07:39:12.142Z,5.72
2019-04-05T07:44:14.122Z,6.65
2019-04-05T07:49:16.157Z,6.15
2019-04-05T07:54:18.224Z,6.95
2019-04-05T07:59:21.134Z,5.83
2019-04-05T08:04:23.346Z,5.83
2019-04-05T08:09:26.236Z,6.55
2019-04-05T08:14:28.300Z,6.47
2019-04-05T08:19:30.316Z,5.95
2019-04-05T08:24:32.367Z,5.58
2019-04-05T08:29:34.427Z,6.37
2019-04-05T08:34:36.453Z,6.60
2019-04-05T08:39:38.525Z,6.83
2019-04-05T08:44:40.636Z,7.33
2019-04-05T08:49:42.783Z,7.72
2019-04-05T08:54:44.902Z,6.53
2019-04-05T08:59:47.031Z,6.28
2019-04-05T09:04:49.172Z,6.90
2019-04-05T09:09:51.264Z,7.67
2019-04-05T09:14:53.567Z,7.30
2019-04-05T09:19:55.677Z,7.83
2019-04-05T09:24:57.775Z,7.53
2019-04-05T09:29:59.853Z,8.05
2019-04-05T09:35:02.005Z,7.70
2019-04-05T09:40:04.645Z,7.47
2019-04-05T09:45:07.197Z,8.05
2019-04-05T09:50:09.444Z,7.75
2019-04-05T09:55:11.484Z,7.17
2019-04-05T10:00:19.627Z,8.73
2019-04-05T10:05:21.709Z,8.10
2019-04-05T10:10:24.034Z,8.45
2019-04-05T10:15:26.129Z,9.23
2019-04-05T10:20:28.125Z,9.83
2019-04-05T10:25:30.175Z,8.93
2019-04-05T10:30:32.696Z,8.35
2019-04-05T10:35:34.767Z,9.58
2019-04-05T10:40:36.816Z,9.03
2019-04-05T10:45:39.026Z,9.15
2019-04-05T10:50:41.127Z,8.93
2019-04-05T10:55:43.199Z,9.20
2019-04-05T11:00:45.281Z,9.65
2019-04-05T11:05:49.315Z,9.35
2019-04-05T11:10:51.358Z,9.58
2019-04-05T11:15:53.580Z,9.20
2019-04-05T11:20:56.046Z,8.43
2019-04-05T11:25:58.125Z,10.15
2019-04-05T11:31:00.566Z,9.03
2019-04-05T11:36:02.828Z,9.90
2019-04-05T11:41:05.401Z,10.30
2019-04-05T11:46:07.459Z,8.00
2019-04-05T11:51:09.767Z,9.48
2019-04-05T11:56:14.976Z,8.85
2019-04-05T12:01:23.711Z,10.15
2019-04-05T12:06:26.082Z,10.80
2019-04-05T12:11:28.212Z,9.45
2019-04-05T12:16:30.288Z,10.43
2019-04-05T12:21:32.554Z,11.15
2019-04-05T12:26:36.292Z,11.30
2019-04-05T12:31:38.355Z,9.68
2019-04-05T12:36:40.530Z,10.65
2019-04-05T12:41:44.900Z,11.75
2019-04-05T12:46:46.837Z,11.10
2019-04-05T12:51:48.908Z,11.18
2019-04-05T12:56:53.950Z,11.45
2019-04-05T13:01:54.973Z,11.00
2019-04-05T13:06:57.071Z,11.15
2019-04-05T13:11:59.185Z,10.93
2019-04-05T13:17:02.609Z,11.00
2019-04-05T13:22:04.998Z,11.45
2019-04-05T13:27:07.056Z,11.15
2019-04-05T13:32:09.083Z,12.07
2019-04-05T13:37:20.123Z,12.00
2019-04-05T13:42:15.247Z,12.20
2019-04-05T13:47:17.337Z,12.15
2019-04-05T13:52:19.380Z,11.55
2019-04-05T13:57:21.505Z,11.25
2019-04-05T14:02:24.660Z,12.23
2019-04-05T14:07:26.774Z,11.97
2019-04-05T14:12:31.204Z,11.70
2019-04-05T14:17:32.845Z,12.25
2019-04-05T14:22:34.912Z,11.45
2019-04-05T14:27:37.313Z,11.75
2019-04-05T14:32:39.451Z,11.60
2019-04-05T14:37:41.513Z,12.47
2019-04-05T14:42:44.980Z,12.13
2019-04-05T14:47:47.522Z,12.05
2019-04-05T14:52:49.890Z,11.80
2019-04-05T14:57:52.050Z,12.30
2019-04-05T15:02:54.115Z,11.33
2019-04-05T15:07:56.254Z,11.93
2019-04-05T15:13:00.279Z,11.68
2019-04-05T15:18:02.336Z,11.43
2019-04-05T15:23:05.018Z,11.12
2019-04-05T15:28:07.081Z,10.98
2019-04-05T15:33:09.238Z,12.07
2019-04-05T15:38:11.401Z,10.90
2019-04-05T15:43:13.531Z,11.28
2019-04-05T15:48:15.686Z,10.48
2019-04-05T15:53:17.793Z,10.98
2019-04-05T15:58:19.935Z,11.33
2019-04-05T16:03:21.964Z,10.45
2019-04-05T16:08:24.142Z,11.28
2019-04-05T16:13:26.280Z,11.25
2019-04-05T16:18:28.339Z,11.83
2019-04-05T16:23:30.379Z,11.97
2019-04-05T16:28:32.390Z,12.10
2019-04-05T16:33:34.853Z,11.75
2019-04-05T16:38:36.913Z,10.98
2019-04-05T16:43:38.982Z,12.15
2019-04-05T16:48:40.990Z,13.68
2019-04-05T16:53:59.496Z,11.43
2019-04-05T16:59:01.522Z,12.95
2019-04-05T17:04:03.696Z,12.18
2019-04-05T17:09:07.775Z,12.58
2019-04-05T17:14:09.872Z,11.83
2019-04-05T17:19:12.013Z,13.70
2019-04-05T17:24:14.083Z,13.20
2019-04-05T17:29:16.210Z,15.43
2019-04-05T17:34:19.214Z,14.45
2019-04-05T17:39:21.297Z,15.50
2019-04-05T17:44:23.333Z,15.13
2019-04-05T17:49:25.390Z,17.32
2019-04-05T17:54:27.408Z,15.63
2019-04-05T17:59:29.858Z,15.85
2019-04-05T18:04:31.976Z,17.12
2019-04-05T18:09:34.453Z,15.78
2019-04-05T18:14:36.557Z,15.98
2019-04-05T18:19:38.559Z,23.60
2019-04-05T18:24:40.673Z,15.83
2019-04-05T18:29:42.724Z,16.57
2019-04-05T18:34:44.924Z,17.20
2019-04-05T18:39:47.074Z,15.13
2019-04-05T18:44:49.210Z,15.28
2019-04-05T18:50:02.397Z,17.10
2019-04-05T18:54:55.281Z,16.37
2019-04-05T18:59:57.355Z,16.48
2019-04-05T19:04:59.464Z,17.67
2019-04-05T19:10:01.798Z,16.65
2019-04-05T19:15:04.466Z,16.80
2019-04-05T19:20:06.894Z,16.90
2019-04-05T19:25:09.568Z,17.42
2019-04-05T19:50:27.792Z,19.73
2019-04-05T19:55:29.805Z,19.52
2019-04-05T20:00:31.873Z,20.57
2019-04-05T20:05:33.934Z,17.95
2019-04-05T20:10:36.031Z,19.40
2019-04-05T20:15:38.070Z,20.00
2019-04-05T20:20:40.581Z,17.25
2019-04-05T20:25:42.587Z,18.00
2019-04-05T20:30:44.608Z,17.45
2019-04-05T20:35:46.703Z,18.07
2019-04-05T20:40:48.796Z,19.17
2019-04-05T20:45:50.847Z,18.37
2019-04-05T20:50:52.959Z,17.30
2019-04-05T20:55:55.003Z,17.70
2019-04-05T21:00:59.281Z,24.70
2019-04-05T21:06:01.054Z,18.00
2019-04-05T21:11:03.418Z,19.45
2019-04-05T21:16:05.489Z,19.10
2019-04-05T21:21:07.543Z,18.85
2019-04-05T21:26:09.858Z,20.17
2019-04-05T21:31:11.927Z,20.90
2019-04-05T21:36:13.974Z,19.77
2019-04-05T21:41:16.409Z,19.20
2019-04-05T21:46:18.485Z,19.42
2019-04-05T21:51:20.503Z,19.32
2019-04-05T21:56:22.533Z,17.95
2019-04-05T22:01:26.309Z,19.35
2019-04-05T22:06:28.360Z,19.87
2019-04-05T22:11:30.458Z,18.00
2019-04-05T22:16:32.486Z,19.40
2019-04-05T22:21:34.540Z,19.23
2019-04-05T22:26:36.678Z,18.35
2019-04-05T22:31:38.709Z,19.67
2019-04-05T22:36:40.833Z,20.37
2019-04-05T22:41:42.914Z,18.45
2019-04-05T22:46:44.977Z,18.25
2019-04-05T22:51:47.038Z,19.70
2019-04-05T22:56:49.075Z,19.45
2019-04-05T23:01:51.235Z,19.85
2019-04-05T23:06:53.248Z,20.27
2019-04-05T23:11:55.314Z,19.65
2019-04-05T23:16:57.415Z,19.23
2019-04-05T23:22:00.933Z,19.80
2019-04-05T23:27:03.298Z,19.77
2019-04-05T23:32:05.573Z,19.62
2019-04-05T23:37:07.671Z,20.55
2019-04-05T23:42:09.752Z,19.42
2019-04-05T23:47:12.081Z,18.52
2019-04-05T23:52:14.157Z,18.77
2019-04-05T23:57:16.198Z,18.50
